Portada
METAR-TAF:

METAR-TAF

Aeropuertos :

Aeropuerto Internacional de Chuuk

Weno, Micronesia

latitud: 07-28N, longitud: 151-51E, altitud: 3 m

Observación

El informe se hizo hace 42 minutos, a las 05:54 UTC
Viento 8 kt del norte-noreste
Temperatura 29°C
Humedad 79%
Presión 1008 hPa
Visibilidad: 24.1 km
Escasas nubes a una altura de 1400 ft
Cielo nuboso a una altura de 12000 ft
Cielo cubierto a una altura de 28000 ft

METAR: PTKK 210554Z 03008KT 15SM FEW014 BKN120 OVC280 29/25 A2978 RMK SLP084 8/128 T02920254 10307 20292 57017

Hora: 16:36 (06:36 UTC)

Pronóstico

El informe se hizo hace 5 horas y 52 minutos, a las 00:44 UTC
Pronóstico válido del 21 a las 01 UTC al 21 a las 24 UTC
Viento 12 kt del noreste con ráfagas de 20 kt
Visibilidad: 10 km
Nubes dispersas a una altura de 1600 ft
Nubes dispersas a una altura de 5000 ft
Cielo nuboso a una altura de 10000 ft
chaparrones en las proximidades

TAF: PTKK 210044Z 2101/2124 04012G20KT P6SM VCSH SCT016 SCT050 BKN100

Observaciones y pronósticos meteorológicos de más de 4000 aeropuertos (mensajes METAR y TAF).

Los puntos amarillos y rojos representan las estaciones disponibles.

Ponga el ratón en el punto deseado para ver el nombre de la estación.

Haga clic para ver las observaciones y los pronósticos meteorológicos.

Para cambiar el mapa : haga clic en los botones verdes con una cruz de color negro para hacer un zoom, en el botón verde con un guión para alejar o en las flechas verdes para mapas adyacentes.


METAR-TAF: